createdAt,value
2023-04-04T00:00:24.750Z,1.65
2023-04-04T00:02:51.765Z,1.80
2023-04-04T00:05:18.326Z,2.15
2023-04-04T00:07:47.838Z,1.92
2023-04-04T00:10:14.995Z,1.95
2023-04-04T00:12:42.269Z,1.67
2023-04-04T00:15:09.301Z,2.10
2023-04-04T00:17:35.705Z,1.65
2023-04-04T00:20:04.089Z,1.80
2023-04-04T00:22:30.541Z,2.00
2023-04-04T00:24:57.207Z,1.70
2023-04-04T00:27:23.519Z,1.90
2023-04-04T00:29:49.888Z,2.40
2023-04-04T00:32:16.498Z,2.25
2023-04-04T00:34:43.129Z,1.73
2023-04-04T00:37:12.097Z,2.05
2023-04-04T00:39:38.425Z,2.40
2023-04-04T00:42:04.821Z,1.77
2023-04-04T00:44:32.337Z,1.85
2023-04-04T00:46:58.707Z,2.33
2023-04-04T00:49:25.085Z,2.08
2023-04-04T00:51:51.440Z,2.30
2023-04-04T00:54:17.804Z,2.00
2023-04-04T00:56:44.222Z,1.92
2023-04-04T00:59:10.946Z,1.55
2023-04-04T01:01:37.628Z,1.80
2023-04-04T01:04:04.447Z,2.25
2023-04-04T01:06:32.652Z,2.10
2023-04-04T01:08:59.307Z,2.22
2023-04-04T01:11:26.201Z,2.05
2023-04-04T01:13:52.535Z,2.10
2023-04-04T01:16:18.955Z,1.83
2023-04-04T01:18:46.160Z,2.25
2023-04-04T01:21:14.118Z,1.98
2023-04-04T01:24:01.330Z,2.47
2023-04-04T01:26:28.237Z,2.30
2023-04-04T01:28:55.260Z,2.10
2023-04-04T01:31:27.611Z,2.33
2023-04-04T01:33:59.081Z,2.50
2023-04-04T01:36:32.517Z,2.20
2023-04-04T01:39:06.000Z,2.20
2023-04-04T01:41:33.625Z,2.88
2023-04-04T01:44:00.638Z,2.97
2023-04-04T01:46:27.496Z,2.78
2023-04-04T01:48:54.227Z,2.30
2023-04-04T01:51:21.953Z,2.72
2023-04-04T01:53:48.559Z,2.50
2023-04-04T01:56:14.954Z,2.75
2023-04-04T01:58:41.443Z,2.50
2023-04-04T02:01:07.925Z,2.72
2023-04-04T02:03:34.410Z,2.63
2023-04-04T02:06:01.492Z,2.50
2023-04-04T02:08:28.728Z,2.50
2023-04-04T02:10:58.455Z,2.72
2023-04-04T02:13:25.092Z,2.53
2023-04-04T02:15:52.315Z,3.03
2023-04-04T02:18:21.138Z,2.47
2023-04-04T02:20:47.481Z,2.65
2023-04-04T02:23:13.807Z,2.58
2023-04-04T02:25:40.270Z,3.10
2023-04-04T02:28:06.659Z,2.90
2023-04-04T02:30:33.038Z,2.50
2023-04-04T02:33:00.263Z,2.85
2023-04-04T02:35:27.278Z,3.10
2023-04-04T02:37:53.678Z,2.83
2023-04-04T02:40:20.297Z,3.03
2023-04-04T02:42:46.678Z,2.47
2023-04-04T02:45:14.360Z,2.85
2023-04-04T02:47:42.410Z,2.70
2023-04-04T02:50:11.254Z,3.50
2023-04-04T02:52:38.084Z,3.38
2023-04-04T02:55:05.345Z,3.08
2023-04-04T02:57:31.887Z,2.65
2023-04-04T02:59:58.302Z,2.92
2023-04-04T03:02:26.087Z,3.20
2023-04-04T03:04:53.285Z,2.95
2023-04-04T03:07:19.649Z,2.85
2023-04-04T03:09:46.085Z,3.22
2023-04-04T03:12:12.458Z,3.13
2023-04-04T03:14:38.839Z,2.78
2023-04-04T03:17:06.160Z,2.75
2023-04-04T03:19:32.972Z,3.33
2023-04-04T03:21:59.356Z,2.95
2023-04-04T03:24:25.734Z,2.85
2023-04-04T03:26:52.064Z,2.80
2023-04-04T03:29:18.413Z,3.00
2023-04-04T03:31:44.789Z,2.88
2023-04-04T03:34:11.679Z,3.25
2023-04-04T03:36:38.055Z,2.78
2023-04-04T03:39:04.386Z,3.10
2023-04-04T03:41:30.965Z,3.38
2023-04-04T03:43:57.337Z,3.30
2023-04-04T03:46:24.333Z,3.03
2023-04-04T03:48:50.876Z,2.85
2023-04-04T03:51:23.523Z,2.83
2023-04-04T03:53:49.835Z,3.10
2023-04-04T03:56:16.493Z,3.05
2023-04-04T03:58:42.885Z,2.75
2023-04-04T04:01:09.246Z,2.83
2023-04-04T04:03:36.035Z,2.78
2023-04-04T04:06:02.494Z,2.90
2023-04-04T04:08:28.926Z,3.00
2023-04-04T04:10:55.589Z,3.13
2023-04-04T04:13:22.144Z,2.95
2023-04-04T04:15:49.202Z,3.30
2023-04-04T04:18:15.645Z,3.15
2023-04-04T04:20:42.259Z,3.00
2023-04-04T04:23:08.798Z,2.90
2023-04-04T04:25:35.277Z,3.03
2023-04-04T04:28:01.660Z,2.75
2023-04-04T04:30:27.994Z,3.05
2023-04-04T04:32:54.370Z,3.15
2023-04-04T04:35:20.889Z,2.92
2023-04-04T04:37:47.210Z,2.92
2023-04-04T04:40:16.423Z,3.03
2023-04-04T04:42:46.304Z,3.40
2023-04-04T04:45:12.777Z,3.15
2023-04-04T04:47:39.255Z,2.97
2023-04-04T04:50:06.240Z,2.88
2023-04-04T04:52:32.662Z,3.10
2023-04-04T04:54:59.108Z,2.50
2023-04-04T04:57:25.492Z,3.20
2023-04-04T04:59:51.854Z,3.35
2023-04-04T05:02:18.191Z,3.15
2023-04-04T05:04:45.504Z,2.88
2023-04-04T05:07:12.389Z,3.17
2023-04-04T05:09:39.106Z,2.60
2023-04-04T05:12:05.684Z,3.08
2023-04-04T05:14:32.003Z,3.10
2023-04-04T05:16:58.364Z,3.08
2023-04-04T05:19:24.821Z,6.82
2023-04-04T05:21:52.139Z,9.32
2023-04-04T05:24:18.538Z,8.48
2023-04-04T05:26:44.874Z,7.97
2023-04-04T05:29:11.262Z,5.43
2023-04-04T05:31:37.697Z,3.33
2023-04-04T05:34:08.238Z,2.70
2023-04-04T05:36:35.501Z,3.10
2023-04-04T05:39:04.582Z,2.85
2023-04-04T05:41:31.506Z,2.75
2023-04-04T05:43:58.049Z,3.00
2023-04-04T05:46:24.619Z,2.95
2023-04-04T05:48:51.865Z,3.28
2023-04-04T05:51:18.647Z,2.90
2023-04-04T05:53:45.685Z,2.92
2023-04-04T05:56:12.045Z,2.90
2023-04-04T05:58:38.688Z,2.97
2023-04-04T06:01:08.918Z,3.35
2023-04-04T06:03:35.561Z,2.63
2023-04-04T06:06:04.390Z,2.83
2023-04-04T06:08:35.387Z,3.00
2023-04-04T06:11:06.745Z,2.97
2023-04-04T06:13:33.112Z,2.75
2023-04-04T06:15:59.498Z,2.53
2023-04-04T06:18:25.894Z,3.20
2023-04-04T06:20:52.242Z,2.50
2023-04-04T06:23:18.627Z,2.80
2023-04-04T06:25:45.192Z,2.70
2023-04-04T06:28:13.545Z,3.72
2023-04-04T06:30:40.046Z,3.22
2023-04-04T06:33:06.735Z,2.92
2023-04-04T06:35:33.113Z,2.78
2023-04-04T06:37:59.468Z,2.90
2023-04-04T06:40:25.874Z,2.95
2023-04-04T06:42:53.915Z,2.40
2023-04-04T06:45:20.244Z,2.72
2023-04-04T06:47:46.675Z,2.40
2023-04-04T06:50:13.582Z,2.50
2023-04-04T06:52:40.101Z,2.75
2023-04-04T06:55:07.273Z,2.45
2023-04-04T06:57:33.603Z,2.35
2023-04-04T06:59:59.965Z,2.33
2023-04-04T07:02:26.652Z,2.35
2023-04-04T07:04:53.075Z,2.53
2023-04-04T07:07:19.392Z,2.58
2023-04-04T07:09:46.104Z,2.40
2023-04-04T07:12:12.690Z,2.40
2023-04-04T07:14:39.172Z,2.42
2023-04-04T07:17:17.100Z,2.00
2023-04-04T07:19:48.260Z,2.08
2023-04-04T07:22:14.687Z,2.13
2023-04-04T07:24:42.120Z,2.30
2023-04-04T07:27:08.736Z,2.28
2023-04-04T07:29:35.069Z,2.28
2023-04-04T07:32:01.474Z,2.22
2023-04-04T07:34:29.410Z,2.58
2023-04-04T07:36:55.764Z,2.45
2023-04-04T07:39:22.191Z,2.42
2023-04-04T07:41:48.578Z,2.45
2023-04-04T07:44:15.763Z,2.33
2023-04-04T07:46:42.562Z,2.30
2023-04-04T07:49:09.029Z,2.40
2023-04-04T07:51:35.567Z,2.53
2023-04-04T07:54:02.367Z,2.60
2023-04-04T07:56:28.953Z,1.98
2023-04-04T07:58:55.562Z,2.55
2023-04-04T08:01:21.982Z,2.60
2023-04-04T08:03:50.019Z,2.47
2023-04-04T08:06:16.553Z,2.28
2023-04-04T08:08:42.948Z,2.40
2023-04-04T08:11:09.322Z,2.28
2023-04-04T08:13:35.895Z,2.63
2023-04-04T08:16:02.342Z,2.35
2023-04-04T08:18:28.738Z,2.38
2023-04-04T08:20:55.270Z,2.55
2023-04-04T08:23:21.704Z,2.60
2023-04-04T08:25:48.256Z,2.50
2023-04-04T08:28:15.556Z,2.53
2023-04-04T08:30:42.056Z,2.70
2023-04-04T08:33:09.323Z,2.60
2023-04-04T08:35:36.291Z,2.50
2023-04-04T08:38:06.032Z,2.75
2023-04-04T08:40:34.751Z,2.25
2023-04-04T08:43:01.639Z,2.75
2023-04-04T08:45:28.205Z,2.58
2023-04-04T08:47:55.337Z,2.33
2023-04-04T08:50:22.756Z,2.67
2023-04-04T08:52:49.144Z,2.50
2023-04-04T08:55:15.867Z,2.53
2023-04-04T08:57:43.435Z,2.45
2023-04-04T09:00:10.343Z,2.20
2023-04-04T09:02:59.377Z,1.95
2023-04-04T09:05:26.138Z,1.90
2023-04-04T09:07:54.495Z,2.15
2023-04-04T09:10:21.253Z,2.65
2023-04-04T09:12:48.501Z,2.42
2023-04-04T09:15:15.824Z,2.40
2023-04-04T09:17:42.327Z,2.40
2023-04-04T09:20:37.487Z,2.33
2023-04-04T09:23:14.930Z,2.40
2023-04-04T09:28:24.080Z,2.35
2023-04-04T09:30:51.448Z,2.25
2023-04-04T09:33:19.507Z,2.40
2023-04-04T09:35:49.344Z,2.10
2023-04-04T09:38:16.599Z,2.13
2023-04-04T09:40:43.465Z,2.33
2023-04-04T09:43:12.064Z,2.45
2023-04-04T09:45:44.785Z,2.30
2023-04-04T09:48:11.645Z,2.30
2023-04-04T09:50:45.668Z,2.55
2023-04-04T09:53:18.713Z,2.53
2023-04-04T09:55:54.830Z,2.70
2023-04-04T09:58:31.816Z,2.40
2023-04-04T10:01:02.402Z,2.38
2023-04-04T10:03:29.372Z,2.25
2023-04-04T10:06:15.219Z,2.25
2023-04-04T10:08:43.021Z,2.13
2023-04-04T10:11:12.414Z,1.77
2023-04-04T10:13:41.442Z,2.47
2023-04-04T10:16:09.130Z,2.38
2023-04-04T10:18:36.688Z,2.30
2023-04-04T10:21:15.108Z,2.03
2023-04-04T10:23:43.800Z,1.70
2023-04-04T10:26:10.829Z,2.40
2023-04-04T10:28:37.607Z,2.42
2023-04-04T10:31:24.256Z,2.28
2023-04-04T10:34:02.549Z,2.22
2023-04-04T10:36:31.500Z,2.20
2023-04-04T10:39:04.957Z,2.10
2023-04-04T10:41:32.219Z,2.30
2023-04-04T10:44:09.468Z,2.17
2023-04-04T10:46:38.814Z,1.88
2023-04-04T10:49:05.537Z,2.00
2023-04-04T10:51:35.346Z,2.13
2023-04-04T10:54:06.693Z,2.13
2023-04-04T10:56:33.034Z,2.08
2023-04-04T10:59:13.424Z,1.70
2023-04-04T11:01:57.541Z,2.00
2023-04-04T11:04:33.113Z,1.98
2023-04-04T11:07:13.609Z,2.15
2023-04-04T11:10:16.222Z,2.05
2023-04-04T11:12:45.971Z,1.60
2023-04-04T11:15:14.420Z,2.08
2023-04-04T11:18:10.542Z,2.05
2023-04-04T11:20:45.612Z,1.90
2023-04-04T11:23:22.851Z,2.20
2023-04-04T11:25:53.896Z,1.77
2023-04-04T11:28:46.355Z,1.90
2023-04-04T11:31:19.581Z,1.98
2023-04-04T11:34:08.214Z,2.08
2023-04-04T11:36:37.645Z,2.13
2023-04-04T11:39:12.098Z,1.90
2023-04-04T11:41:47.732Z,2.05
2023-04-04T11:44:14.872Z,2.05
2023-04-04T11:46:41.357Z,2.15
2023-04-04T11:49:07.912Z,1.90
2023-04-04T11:51:34.948Z,1.80
2023-04-04T11:54:01.894Z,1.92
2023-04-04T11:56:28.589Z,2.03
2023-04-04T11:59:08.621Z,2.05
2023-04-04T12:01:38.890Z,2.15
2023-04-04T12:04:05.282Z,2.30
2023-04-04T12:06:37.777Z,1.83
2023-04-04T12:09:05.522Z,2.08
2023-04-04T12:11:33.937Z,1.90
2023-04-04T12:14:00.927Z,2.42
2023-04-04T12:16:28.235Z,2.45
2023-04-04T12:18:56.314Z,2.25
2023-04-04T12:21:22.680Z,2.05
2023-04-04T12:23:49.281Z,2.33
2023-04-04T12:26:16.735Z,2.80
2023-04-04T12:28:45.159Z,2.65
2023-04-04T12:31:13.273Z,2.65
2023-04-04T12:33:44.359Z,3.00
2023-04-04T12:36:11.443Z,2.08
2023-04-04T12:39:00.145Z,2.10
2023-04-04T12:41:27.602Z,2.50
2023-04-04T12:44:04.022Z,2.55
2023-04-04T12:46:40.762Z,2.25
2023-04-04T12:49:09.894Z,2.60
2023-04-04T12:51:36.642Z,2.33
2023-04-04T12:54:05.019Z,2.42
2023-04-04T12:56:31.694Z,2.28
2023-04-04T12:59:04.726Z,2.15
2023-04-04T13:01:34.779Z,2.22
2023-04-04T13:04:04.299Z,2.38
2023-04-04T13:06:32.205Z,2.75
2023-04-04T13:08:59.247Z,2.33
2023-04-04T13:11:27.326Z,2.60
2023-04-04T13:14:01.604Z,2.50
2023-04-04T13:16:36.829Z,2.38
2023-04-04T13:19:03.949Z,2.28
2023-04-04T13:21:30.836Z,2.90
2023-04-04T13:23:57.390Z,2.40
2023-04-04T13:26:23.746Z,2.75
2023-04-04T13:28:50.253Z,2.67
2023-04-04T13:31:17.383Z,2.75
2023-04-04T13:33:43.869Z,2.65
2023-04-04T13:36:10.564Z,2.60
2023-04-04T13:38:37.002Z,2.60
2023-04-04T13:41:03.391Z,2.47
2023-04-04T13:43:29.826Z,3.08
2023-04-04T13:45:56.489Z,2.50
2023-04-04T13:48:22.997Z,2.50
2023-04-04T13:50:53.305Z,2.15
2023-04-04T13:53:20.118Z,2.60
2023-04-04T13:55:57.350Z,2.75
2023-04-04T13:58:33.113Z,2.58
2023-04-04T14:01:03.021Z,2.50
2023-04-04T14:03:30.413Z,2.17
2023-04-04T14:05:56.792Z,2.60
2023-04-04T14:08:23.189Z,3.40
2023-04-04T14:10:49.547Z,2.50
2023-04-04T14:13:16.382Z,2.45
2023-04-04T14:15:43.029Z,2.60
2023-04-04T14:18:09.698Z,2.80
2023-04-04T14:20:37.157Z,2.70
2023-04-04T14:23:03.537Z,2.40
2023-04-04T14:25:29.923Z,2.80
2023-04-04T14:27:56.294Z,2.47
2023-04-04T14:30:22.815Z,2.15
2023-04-04T14:32:51.098Z,2.65
2023-04-04T14:35:17.583Z,2.47
2023-04-04T14:37:43.913Z,2.60
2023-04-04T14:40:10.517Z,2.53
2023-04-04T14:42:38.215Z,2.50
2023-04-04T14:45:07.552Z,2.55
2023-04-04T14:47:34.870Z,2.58
2023-04-04T14:50:01.573Z,2.90
2023-04-04T14:52:29.549Z,2.95
2023-04-04T14:54:56.422Z,2.75
2023-04-04T14:57:22.818Z,2.80
2023-04-04T14:59:49.244Z,2.97
2023-04-04T15:02:16.170Z,2.83
2023-04-04T15:04:42.816Z,2.67
2023-04-04T15:07:09.421Z,3.17
2023-04-04T15:09:35.948Z,3.00
2023-04-04T15:12:02.609Z,2.58
2023-04-04T15:14:29.181Z,2.80
2023-04-04T15:16:55.642Z,2.45
2023-04-04T15:19:22.120Z,2.65
2023-04-04T15:21:49.056Z,3.00
2023-04-04T15:24:17.398Z,2.65
2023-04-04T15:26:43.813Z,2.75
2023-04-04T15:29:10.220Z,3.13
2023-04-04T15:31:36.753Z,2.90
2023-04-04T15:34:03.163Z,2.92
2023-04-04T15:36:29.520Z,3.47
2023-04-04T15:38:56.238Z,3.22
2023-04-04T15:41:23.093Z,2.88
2023-04-04T15:43:49.456Z,2.70
2023-04-04T15:46:16.110Z,2.75
2023-04-04T15:48:42.503Z,3.28
2023-04-04T15:51:08.841Z,2.38
2023-04-04T15:53:36.172Z,2.78
2023-04-04T15:56:02.570Z,2.50
2023-04-04T15:58:28.996Z,2.47
2023-04-04T16:00:55.911Z,2.90
2023-04-04T16:03:23.922Z,2.53
2023-04-04T16:05:50.386Z,2.65
2023-04-04T16:08:16.735Z,2.72
2023-04-04T16:10:44.490Z,2.80
2023-04-04T16:13:11.228Z,2.78
2023-04-04T16:15:38.134Z,2.30
2023-04-04T16:18:04.633Z,2.65
2023-04-04T16:20:31.288Z,2.78
2023-04-04T16:22:57.677Z,3.33
2023-04-04T16:25:24.061Z,3.10
2023-04-04T16:27:50.471Z,2.75
2023-04-04T16:30:16.872Z,2.50
2023-04-04T16:32:46.242Z,3.33
2023-04-04T16:35:12.768Z,2.80
2023-04-04T16:37:39.120Z,3.35
2023-04-04T16:40:06.601Z,3.17
2023-04-04T16:42:32.931Z,2.85
2023-04-04T16:44:59.386Z,3.00
2023-04-04T16:47:26.794Z,3.03
2023-04-04T16:49:54.933Z,2.72
2023-04-04T16:52:21.316Z,2.60
2023-04-04T16:54:47.666Z,3.30
2023-04-04T16:57:14.037Z,2.97
2023-04-04T16:59:40.477Z,2.58
2023-04-04T17:02:10.728Z,2.58
2023-04-04T17:04:40.324Z,2.75
2023-04-04T17:07:08.512Z,2.97
2023-04-04T17:09:35.756Z,2.67
2023-04-04T17:12:03.456Z,3.08
2023-04-04T17:14:30.465Z,2.70
2023-04-04T17:17:02.609Z,3.10
2023-04-04T17:19:29.992Z,3.30
2023-04-04T17:21:56.961Z,2.90
2023-04-04T17:24:25.272Z,2.70
2023-04-04T17:26:52.321Z,3.20
2023-04-04T17:29:20.601Z,3.20
2023-04-04T17:31:48.746Z,2.95
2023-04-04T17:34:16.075Z,2.90
2023-04-04T17:36:42.807Z,3.15
2023-04-04T17:39:09.402Z,2.80
2023-04-04T17:41:36.209Z,2.80
2023-04-04T17:44:02.590Z,2.70
2023-04-04T17:46:29.776Z,2.80
2023-04-04T17:48:56.792Z,2.67
2023-04-04T17:51:23.132Z,3.00
2023-04-04T17:53:51.482Z,3.05
2023-04-04T17:56:17.909Z,3.00
2023-04-04T17:58:44.255Z,2.83
2023-04-04T18:01:11.555Z,3.10
2023-04-04T18:03:38.476Z,2.70
2023-04-04T18:06:05.894Z,2.65
2023-04-04T18:08:32.239Z,3.15
2023-04-04T18:10:58.785Z,3.10
2023-04-04T18:13:25.302Z,2.92
2023-04-04T18:15:52.430Z,2.78
2023-04-04T18:18:21.082Z,2.63
2023-04-04T18:20:48.206Z,2.83
2023-04-04T18:23:16.445Z,2.78
2023-04-04T18:25:43.104Z,3.10
2023-04-04T18:28:09.457Z,2.58
2023-04-04T18:30:36.318Z,2.85
2023-04-04T18:33:04.315Z,2.80
2023-04-04T18:35:30.879Z,2.97
2023-04-04T18:37:57.232Z,2.75
2023-04-04T18:40:23.584Z,3.40
2023-04-04T18:42:51.715Z,2.58
2023-04-04T18:45:20.931Z,3.03
2023-04-04T18:47:49.922Z,3.30
2023-04-04T18:50:16.432Z,2.55
2023-04-04T18:52:42.784Z,3.05
2023-04-04T18:55:09.522Z,3.13
2023-04-04T18:57:37.160Z,3.00
2023-04-04T19:00:06.578Z,2.88
2023-04-04T19:02:34.173Z,3.25
2023-04-04T19:05:03.459Z,2.65
2023-04-04T19:07:31.149Z,3.00
2023-04-04T19:09:57.966Z,3.65
2023-04-04T19:12:24.323Z,3.00
2023-04-04T19:14:50.649Z,3.13
2023-04-04T19:17:19.681Z,2.70
2023-04-04T19:19:47.188Z,3.33
2023-04-04T19:22:13.517Z,2.85
2023-04-04T19:24:40.738Z,2.92
2023-04-04T19:27:07.615Z,3.22
2023-04-04T19:29:35.913Z,3.08
2023-04-04T19:32:07.880Z,3.13
2023-04-04T19:34:34.341Z,3.10
2023-04-04T19:37:00.845Z,3.08
2023-04-04T19:39:31.062Z,2.90
2023-04-04T19:41:57.714Z,2.60
2023-04-04T19:44:24.267Z,2.72
2023-04-04T19:46:50.892Z,2.90
2023-04-04T19:49:19.464Z,3.03
2023-04-04T19:51:49.459Z,2.80
2023-04-04T19:54:16.085Z,2.83
2023-04-04T19:56:45.277Z,2.88
2023-04-04T19:59:40.646Z,2.80
2023-04-04T20:02:16.491Z,2.67
2023-04-04T20:04:42.884Z,2.90
2023-04-04T20:07:10.502Z,2.97
2023-04-04T20:09:39.878Z,2.63
2023-04-04T20:12:07.329Z,3.15
2023-04-04T20:14:34.226Z,3.30
2023-04-04T20:17:00.596Z,2.83
2023-04-04T20:19:28.281Z,2.95
2023-04-04T20:21:54.894Z,2.78
2023-04-04T20:24:21.837Z,2.88
2023-04-04T20:26:54.330Z,4.10
2023-04-04T20:29:25.685Z,3.25
2023-04-04T20:31:57.143Z,3.05
2023-04-04T20:34:45.168Z,3.28
2023-04-04T20:37:23.595Z,3.00
2023-04-04T20:40:05.980Z,3.33
2023-04-04T20:42:38.054Z,3.25
2023-04-04T20:45:14.052Z,3.35
2023-04-04T20:47:40.389Z,3.00
2023-04-04T20:50:27.299Z,2.90
2023-04-04T20:52:58.466Z,2.90
2023-04-04T20:55:27.200Z,2.80
2023-04-04T20:57:55.185Z,2.95
2023-04-04T21:00:36.719Z,3.28
2023-04-04T21:03:32.553Z,3.13
2023-04-04T21:06:03.588Z,3.47
2023-04-04T21:08:32.710Z,3.45
2023-04-04T21:11:01.575Z,3.47
2023-04-04T21:13:34.092Z,3.72
2023-04-04T21:16:04.696Z,3.58
2023-04-04T21:18:32.741Z,2.97
2023-04-04T21:21:09.950Z,3.10
2023-04-04T21:23:52.965Z,3.90
2023-04-04T21:26:26.637Z,3.53
2023-04-04T21:28:53.234Z,3.58
2023-04-04T21:31:22.070Z,3.35
2023-04-04T21:33:50.852Z,3.70
2023-04-04T21:36:20.086Z,3.45
2023-04-04T21:38:46.698Z,3.80
2023-04-04T21:41:31.383Z,3.20
2023-04-04T21:44:02.700Z,3.40
2023-04-04T21:46:33.130Z,3.65
2023-04-04T21:48:59.672Z,3.40
2023-04-04T21:51:26.316Z,3.40
2023-04-04T21:53:53.149Z,3.17
2023-04-04T21:56:19.791Z,2.90
2023-04-04T21:58:46.226Z,3.53
2023-04-04T22:01:12.665Z,2.92
2023-04-04T22:03:40.521Z,3.05
2023-04-04T22:06:07.188Z,3.13
2023-04-04T22:08:33.598Z,3.88
2023-04-04T22:11:02.039Z,3.15
2023-04-04T22:13:32.784Z,3.08
2023-04-04T22:16:00.459Z,4.00
2023-04-04T22:18:30.815Z,3.90
2023-04-04T22:20:58.132Z,3.78
2023-04-04T22:23:25.304Z,3.67
2023-04-04T22:25:51.944Z,3.50
2023-04-04T22:28:18.311Z,3.92
2023-04-04T22:30:44.776Z,3.72
2023-04-04T22:33:11.843Z,3.30
2023-04-04T22:35:39.478Z,3.38
2023-04-04T22:38:06.370Z,3.60
2023-04-04T22:40:33.998Z,2.72
2023-04-04T22:43:01.622Z,3.50
2023-04-04T22:45:29.525Z,3.17
2023-04-04T22:47:57.941Z,3.50
2023-04-04T22:50:24.858Z,3.33
2023-04-04T22:52:54.580Z,3.70
2023-04-04T22:55:23.427Z,2.97
2023-04-04T22:57:49.850Z,3.35
2023-04-04T23:00:24.346Z,3.40
2023-04-04T23:02:53.842Z,3.60
2023-04-04T23:05:20.298Z,3.45
2023-04-04T23:07:46.857Z,3.47
2023-04-04T23:10:15.518Z,3.10
2023-04-04T23:12:41.992Z,3.22
2023-04-04T23:15:08.680Z,3.10
2023-04-04T23:17:35.927Z,3.30
2023-04-04T23:20:02.496Z,3.50
2023-04-04T23:22:29.317Z,3.22
2023-04-04T23:24:55.736Z,3.10
2023-04-04T23:27:22.101Z,3.15
2023-04-04T23:29:50.535Z,3.45
2023-04-04T23:32:16.916Z,3.25
2023-04-04T23:34:43.306Z,3.38
2023-04-04T23:37:09.724Z,3.33
2023-04-04T23:39:36.571Z,3.30
2023-04-04T23:42:03.063Z,3.60
2023-04-04T23:44:29.416Z,3.83
2023-04-04T23:46:56.176Z,3.60
2023-04-04T23:49:22.609Z,3.63
2023-04-04T23:51:49.055Z,3.30
2023-04-04T23:54:15.398Z,3.63
2023-04-04T23:56:41.735Z,3.53
2023-04-04T23:59:08.189Z,3.58
